sensor_id;sensor_type;location;lat;lon;timestamp;P1;durP1;ratioP1;P2;durP2;ratioP2
72801;SDS011;61891;55.818;37.084;2023-07-29T00:00:57;4.78;;;2.88;;
72801;SDS011;61891;55.818;37.084;2023-07-29T00:03:22;4.93;;;2.90;;
72801;SDS011;61891;55.818;37.084;2023-07-29T00:05:48;4.35;;;3.00;;
72801;SDS011;61891;55.818;37.084;2023-07-29T00:08:14;4.20;;;3.03;;
72801;SDS011;61891;55.818;37.084;2023-07-29T00:10:40;4.72;;;3.25;;
72801;SDS011;61891;55.818;37.084;2023-07-29T00:13:06;4.75;;;3.00;;
72801;SDS011;61891;55.818;37.084;2023-07-29T00:15:32;5.25;;;3.40;;
72801;SDS011;61891;55.818;37.084;2023-07-29T00:17:58;4.03;;;2.72;;
72801;SDS011;61891;55.818;37.084;2023-07-29T00:20:24;4.40;;;2.95;;
72801;SDS011;61891;55.818;37.084;2023-07-29T00:22:50;3.67;;;3.15;;
72801;SDS011;61891;55.818;37.084;2023-07-29T00:25:19;4.82;;;3.13;;
72801;SDS011;61891;55.818;37.084;2023-07-29T00:27:45;3.72;;;2.90;;
72801;SDS011;61891;55.818;37.084;2023-07-29T00:30:11;3.47;;;2.65;;
72801;SDS011;61891;55.818;37.084;2023-07-29T00:32:37;3.70;;;2.95;;
72801;SDS011;61891;55.818;37.084;2023-07-29T00:35:03;5.45;;;3.30;;
72801;SDS011;61891;55.818;37.084;2023-07-29T00:37:30;4.32;;;3.05;;
72801;SDS011;61891;55.818;37.084;2023-07-29T00:39:56;4.10;;;3.08;;
72801;SDS011;61891;55.818;37.084;2023-07-29T00:42:23;7.95;;;3.35;;
72801;SDS011;61891;55.818;37.084;2023-07-29T00:44:50;4.70;;;3.30;;
72801;SDS011;61891;55.818;37.084;2023-07-29T00:47:16;6.07;;;3.28;;
72801;SDS011;61891;55.818;37.084;2023-07-29T00:52:11;4.03;;;2.80;;
72801;SDS011;61891;55.818;37.084;2023-07-29T00:54:38;4.35;;;3.08;;
72801;SDS011;61891;55.818;37.084;2023-07-29T00:57:05;5.25;;;3.35;;
72801;SDS011;61891;55.818;37.084;2023-07-29T00:59:34;4.82;;;3.20;;
72801;SDS011;61891;55.818;37.084;2023-07-29T01:02:00;5.93;;;3.10;;
72801;SDS011;61891;55.818;37.084;2023-07-29T01:04:27;4.25;;;3.33;;
72801;SDS011;61891;55.818;37.084;2023-07-29T01:07:07;4.28;;;3.13;;
72801;SDS011;61891;55.818;37.084;2023-07-29T01:09:43;4.55;;;3.10;;
72801;SDS011;61891;55.818;37.084;2023-07-29T01:12:27;6.07;;;3.78;;
72801;SDS011;61891;55.818;37.084;2023-07-29T01:18:24;5.53;;;3.55;;
72801;SDS011;61891;55.818;37.084;2023-07-29T01:20:59;5.80;;;3.65;;
72801;SDS011;61891;55.818;37.084;2023-07-29T01:23:30;5.35;;;3.60;;
72801;SDS011;61891;55.818;37.084;2023-07-29T01:25:58;6.15;;;3.88;;
72801;SDS011;61891;55.818;37.084;2023-07-29T01:28:24;4.35;;;3.83;;
72801;SDS011;61891;55.818;37.084;2023-07-29T01:33:24;4.43;;;3.35;;
72801;SDS011;61891;55.818;37.084;2023-07-29T01:35:58;5.10;;;3.42;;
72801;SDS011;61891;55.818;37.084;2023-07-29T01:38:38;6.30;;;3.15;;
72801;SDS011;61891;55.818;37.084;2023-07-29T01:41:07;3.97;;;3.50;;
72801;SDS011;61891;55.818;37.084;2023-07-29T01:43:35;4.75;;;3.53;;
72801;SDS011;61891;55.818;37.084;2023-07-29T01:46:09;4.63;;;3.55;;
72801;SDS011;61891;55.818;37.084;2023-07-29T01:48:37;5.82;;;3.47;;
72801;SDS011;61891;55.818;37.084;2023-07-29T01:51:04;5.55;;;3.17;;
72801;SDS011;61891;55.818;37.084;2023-07-29T01:53:30;5.60;;;3.40;;
72801;SDS011;61891;55.818;37.084;2023-07-29T01:55:56;6.68;;;3.70;;
72801;SDS011;61891;55.818;37.084;2023-07-29T01:58:23;6.30;;;3.50;;
72801;SDS011;61891;55.818;37.084;2023-07-29T02:00:49;4.05;;;2.85;;
72801;SDS011;61891;55.818;37.084;2023-07-29T02:03:15;4.85;;;3.13;;
72801;SDS011;61891;55.818;37.084;2023-07-29T02:05:41;5.05;;;3.38;;
72801;SDS011;61891;55.818;37.084;2023-07-29T02:08:09;4.20;;;3.33;;
72801;SDS011;61891;55.818;37.084;2023-07-29T02:10:36;8.00;;;3.35;;
72801;SDS011;61891;55.818;37.084;2023-07-29T02:13:02;4.00;;;3.05;;
72801;SDS011;61891;55.818;37.084;2023-07-29T02:15:29;4.72;;;3.08;;
72801;SDS011;61891;55.818;37.084;2023-07-29T02:20:21;5.18;;;3.03;;
72801;SDS011;61891;55.818;37.084;2023-07-29T02:22:48;5.47;;;2.83;;
72801;SDS011;61891;55.818;37.084;2023-07-29T02:25:14;5.00;;;3.00;;
72801;SDS011;61891;55.818;37.084;2023-07-29T02:27:40;4.82;;;3.03;;
72801;SDS011;61891;55.818;37.084;2023-07-29T02:30:06;4.45;;;2.70;;
72801;SDS011;61891;55.818;37.084;2023-07-29T02:32:35;7.57;;;3.22;;
72801;SDS011;61891;55.818;37.084;2023-07-29T02:35:01;4.55;;;2.85;;
72801;SDS011;61891;55.818;37.084;2023-07-29T02:37:31;4.45;;;3.53;;
72801;SDS011;61891;55.818;37.084;2023-07-29T02:39:57;4.18;;;2.78;;
72801;SDS011;61891;55.818;37.084;2023-07-29T02:42:23;4.88;;;3.20;;
72801;SDS011;61891;55.818;37.084;2023-07-29T02:44:49;3.55;;;3.05;;
72801;SDS011;61891;55.818;37.084;2023-07-29T02:47:15;6.53;;;3.35;;
72801;SDS011;61891;55.818;37.084;2023-07-29T02:52:07;4.78;;;3.17;;
72801;SDS011;61891;55.818;37.084;2023-07-29T02:54:32;5.25;;;3.42;;
72801;SDS011;61891;55.818;37.084;2023-07-29T02:56:58;4.40;;;3.28;;
72801;SDS011;61891;55.818;37.084;2023-07-29T02:59:24;5.80;;;3.38;;
72801;SDS011;61891;55.818;37.084;2023-07-29T03:01:50;6.20;;;3.63;;
72801;SDS011;61891;55.818;37.084;2023-07-29T03:04:16;6.45;;;3.75;;
72801;SDS011;61891;55.818;37.084;2023-07-29T03:06:41;5.32;;;3.42;;
72801;SDS011;61891;55.818;37.084;2023-07-29T03:09:08;5.95;;;3.65;;
72801;SDS011;61891;55.818;37.084;2023-07-29T03:11:34;6.10;;;3.97;;
72801;SDS011;61891;55.818;37.084;2023-07-29T03:14:00;6.63;;;3.85;;
72801;SDS011;61891;55.818;37.084;2023-07-29T03:16:28;7.80;;;4.60;;
72801;SDS011;61891;55.818;37.084;2023-07-29T03:18:56;6.43;;;3.95;;
72801;SDS011;61891;55.818;37.084;2023-07-29T03:21:23;6.72;;;3.90;;
72801;SDS011;61891;55.818;37.084;2023-07-29T03:23:49;6.07;;;3.90;;
72801;SDS011;61891;55.818;37.084;2023-07-29T03:26:14;6.30;;;4.18;;
72801;SDS011;61891;55.818;37.084;2023-07-29T03:28:41;4.85;;;3.45;;
72801;SDS011;61891;55.818;37.084;2023-07-29T03:31:08;5.63;;;4.07;;
72801;SDS011;61891;55.818;37.084;2023-07-29T03:33:34;5.85;;;3.88;;
72801;SDS011;61891;55.818;37.084;2023-07-29T03:36:00;5.90;;;3.90;;
72801;SDS011;61891;55.818;37.084;2023-07-29T03:38:26;5.78;;;3.53;;
72801;SDS011;61891;55.818;37.084;2023-07-29T03:43:21;6.00;;;3.08;;
72801;SDS011;61891;55.818;37.084;2023-07-29T03:45:47;5.43;;;3.10;;
72801;SDS011;61891;55.818;37.084;2023-07-29T03:48:13;6.40;;;3.63;;
72801;SDS011;61891;55.818;37.084;2023-07-29T03:50:39;5.10;;;3.25;;
72801;SDS011;61891;55.818;37.084;2023-07-29T03:53:05;6.20;;;3.65;;
72801;SDS011;61891;55.818;37.084;2023-07-29T03:55:32;4.15;;;3.22;;
72801;SDS011;61891;55.818;37.084;2023-07-29T03:57:59;4.80;;;3.22;;
72801;SDS011;61891;55.818;37.084;2023-07-29T04:00:26;4.43;;;2.97;;
72801;SDS011;61891;55.818;37.084;2023-07-29T04:02:54;5.30;;;3.22;;
72801;SDS011;61891;55.818;37.084;2023-07-29T04:05:20;6.07;;;3.30;;
72801;SDS011;61891;55.818;37.084;2023-07-29T04:07:46;6.53;;;2.97;;
72801;SDS011;61891;55.818;37.084;2023-07-29T04:10:12;7.03;;;3.13;;
72801;SDS011;61891;55.818;37.084;2023-07-29T04:12:38;5.05;;;3.10;;
72801;SDS011;61891;55.818;37.084;2023-07-29T04:17:30;4.72;;;3.25;;
72801;SDS011;61891;55.818;37.084;2023-07-29T04:22:29;7.47;;;2.90;;
72801;SDS011;61891;55.818;37.084;2023-07-29T04:24:57;4.15;;;3.00;;
72801;SDS011;61891;55.818;37.084;2023-07-29T04:27:23;6.95;;;3.45;;
72801;SDS011;61891;55.818;37.084;2023-07-29T04:29:49;5.80;;;3.20;;
72801;SDS011;61891;55.818;37.084;2023-07-29T04:32:15;4.57;;;3.70;;
72801;SDS011;61891;55.818;37.084;2023-07-29T04:34:43;4.00;;;3.33;;
72801;SDS011;61891;55.818;37.084;2023-07-29T04:37:08;5.68;;;3.60;;
72801;SDS011;61891;55.818;37.084;2023-07-29T04:39:34;4.43;;;3.35;;
72801;SDS011;61891;55.818;37.084;2023-07-29T04:42:01;4.75;;;3.38;;
72801;SDS011;61891;55.818;37.084;2023-07-29T04:44:27;5.05;;;3.53;;
72801;SDS011;61891;55.818;37.084;2023-07-29T04:46:53;6.47;;;4.25;;
72801;SDS011;61891;55.818;37.084;2023-07-29T04:49:19;5.88;;;3.92;;
72801;SDS011;61891;55.818;37.084;2023-07-29T04:51:46;5.28;;;3.90;;
72801;SDS011;61891;55.818;37.084;2023-07-29T04:54:12;3.90;;;3.28;;
72801;SDS011;61891;55.818;37.084;2023-07-29T04:56:37;5.60;;;3.63;;
72801;SDS011;61891;55.818;37.084;2023-07-29T04:59:03;7.38;;;3.38;;
72801;SDS011;61891;55.818;37.084;2023-07-29T05:01:30;4.68;;;3.40;;
72801;SDS011;61891;55.818;37.084;2023-07-29T05:03:56;5.22;;;3.20;;
72801;SDS011;61891;55.818;37.084;2023-07-29T05:06:22;4.78;;;3.20;;
72801;SDS011;61891;55.818;37.084;2023-07-29T05:08:49;4.45;;;2.80;;
72801;SDS011;61891;55.818;37.084;2023-07-29T05:11:15;4.65;;;3.13;;
72801;SDS011;61891;55.818;37.084;2023-07-29T05:13:40;3.67;;;3.05;;
72801;SDS011;61891;55.818;37.084;2023-07-29T05:16:09;3.67;;;3.03;;
72801;SDS011;61891;55.818;37.084;2023-07-29T05:18:35;5.22;;;3.10;;
72801;SDS011;61891;55.818;37.084;2023-07-29T05:21:01;4.47;;;3.30;;
72801;SDS011;61891;55.818;37.084;2023-07-29T05:23:27;3.25;;;2.92;;
72801;SDS011;61891;55.818;37.084;2023-07-29T05:25:53;5.20;;;3.58;;
72801;SDS011;61891;55.818;37.084;2023-07-29T05:28:18;8.82;;;5.25;;
72801;SDS011;61891;55.818;37.084;2023-07-29T05:30:44;7.47;;;5.40;;
72801;SDS011;61891;55.818;37.084;2023-07-29T05:33:10;6.32;;;4.85;;
72801;SDS011;61891;55.818;37.084;2023-07-29T05:35:38;4.15;;;3.50;;
72801;SDS011;61891;55.818;37.084;2023-07-29T05:38:06;4.35;;;3.05;;
72801;SDS011;61891;55.818;37.084;2023-07-29T05:40:34;4.28;;;3.13;;
72801;SDS011;61891;55.818;37.084;2023-07-29T05:43:00;3.17;;;2.72;;
72801;SDS011;61891;55.818;37.084;2023-07-29T05:47:52;4.07;;;2.53;;
72801;SDS011;61891;55.818;37.084;2023-07-29T05:50:19;4.55;;;2.78;;
72801;SDS011;61891;55.818;37.084;2023-07-29T05:52:46;2.85;;;2.20;;
72801;SDS011;61891;55.818;37.084;2023-07-29T05:55:12;4.65;;;2.53;;
72801;SDS011;61891;55.818;37.084;2023-07-29T05:57:38;2.72;;;2.33;;
72801;SDS011;61891;55.818;37.084;2023-07-29T06:00:07;3.20;;;2.33;;
72801;SDS011;61891;55.818;37.084;2023-07-29T06:02:39;3.22;;;2.85;;
72801;SDS011;61891;55.818;37.084;2023-07-29T06:05:09;3.20;;;2.72;;
72801;SDS011;61891;55.818;37.084;2023-07-29T06:07:35;4.65;;;2.47;;
72801;SDS011;61891;55.818;37.084;2023-07-29T06:10:01;3.50;;;2.50;;
72801;SDS011;61891;55.818;37.084;2023-07-29T06:12:30;5.35;;;3.03;;
72801;SDS011;61891;55.818;37.084;2023-07-29T06:14:56;3.88;;;2.50;;
72801;SDS011;61891;55.818;37.084;2023-07-29T06:17:21;5.03;;;2.72;;
72801;SDS011;61891;55.818;37.084;2023-07-29T06:19:47;4.80;;;3.03;;
72801;SDS011;61891;55.818;37.084;2023-07-29T06:22:13;3.00;;;2.45;;
72801;SDS011;61891;55.818;37.084;2023-07-29T06:24:39;4.10;;;2.60;;
72801;SDS011;61891;55.818;37.084;2023-07-29T06:27:05;5.10;;;2.90;;
72801;SDS011;61891;55.818;37.084;2023-07-29T06:29:31;3.50;;;2.50;;
72801;SDS011;61891;55.818;37.084;2023-07-29T06:31:57;4.30;;;3.30;;
72801;SDS011;61891;55.818;37.084;2023-07-29T06:34:24;4.07;;;2.90;;
72801;SDS011;61891;55.818;37.084;2023-07-29T06:36:50;4.47;;;2.47;;
72801;SDS011;61891;55.818;37.084;2023-07-29T06:39:15;4.20;;;3.15;;
72801;SDS011;61891;55.818;37.084;2023-07-29T06:41:41;4.57;;;3.05;;
72801;SDS011;61891;55.818;37.084;2023-07-29T06:44:08;3.50;;;2.55;;
72801;SDS011;61891;55.818;37.084;2023-07-29T06:46:34;3.08;;;2.65;;
72801;SDS011;61891;55.818;37.084;2023-07-29T06:49:00;3.42;;;3.00;;
72801;SDS011;61891;55.818;37.084;2023-07-29T06:51:26;3.22;;;2.40;;
72801;SDS011;61891;55.818;37.084;2023-07-29T06:53:51;3.25;;;2.53;;
72801;SDS011;61891;55.818;37.084;2023-07-29T06:58:43;4.20;;;2.50;;
72801;SDS011;61891;55.818;37.084;2023-07-29T07:01:08;5.05;;;2.70;;
72801;SDS011;61891;55.818;37.084;2023-07-29T07:03:34;3.45;;;2.55;;
72801;SDS011;61891;55.818;37.084;2023-07-29T07:08:25;4.25;;;2.95;;
72801;SDS011;61891;55.818;37.084;2023-07-29T07:10:51;4.22;;;2.38;;
72801;SDS011;61891;55.818;37.084;2023-07-29T07:13:17;3.08;;;2.40;;
72801;SDS011;61891;55.818;37.084;2023-07-29T07:15:43;4.25;;;2.53;;
72801;SDS011;61891;55.818;37.084;2023-07-29T07:18:08;3.95;;;2.63;;
72801;SDS011;61891;55.818;37.084;2023-07-29T07:20:34;4.55;;;2.80;;
72801;SDS011;61891;55.818;37.084;2023-07-29T07:23:00;3.15;;;2.22;;
72801;SDS011;61891;55.818;37.084;2023-07-29T07:25:26;2.95;;;2.30;;
72801;SDS011;61891;55.818;37.084;2023-07-29T07:27:52;4.22;;;2.33;;
72801;SDS011;61891;55.818;37.084;2023-07-29T07:30:17;2.72;;;2.17;;
72801;SDS011;61891;55.818;37.084;2023-07-29T07:35:10;5.13;;;2.33;;
72801;SDS011;61891;55.818;37.084;2023-07-29T07:37:36;3.05;;;2.05;;
72801;SDS011;61891;55.818;37.084;2023-07-29T07:40:01;3.45;;;2.58;;
72801;SDS011;61891;55.818;37.084;2023-07-29T07:42:29;3.38;;;2.80;;
72801;SDS011;61891;55.818;37.084;2023-07-29T07:44:55;3.08;;;2.40;;
72801;SDS011;61891;55.818;37.084;2023-07-29T07:47:21;4.80;;;2.00;;
72801;SDS011;61891;55.818;37.084;2023-07-29T07:49:46;3.10;;;2.13;;
72801;SDS011;61891;55.818;37.084;2023-07-29T07:52:14;2.92;;;2.20;;
72801;SDS011;61891;55.818;37.084;2023-07-29T07:54:40;2.58;;;2.00;;
72801;SDS011;61891;55.818;37.084;2023-07-29T07:57:06;2.03;;;1.80;;
72801;SDS011;61891;55.818;37.084;2023-07-29T07:59:31;3.03;;;2.10;;
72801;SDS011;61891;55.818;37.084;2023-07-29T08:01:57;4.07;;;2.10;;
72801;SDS011;61891;55.818;37.084;2023-07-29T08:06:48;3.15;;;2.83;;
72801;SDS011;61891;55.818;37.084;2023-07-29T08:09:14;3.38;;;2.28;;
72801;SDS011;61891;55.818;37.084;2023-07-29T08:14:06;3.17;;;1.85;;
72801;SDS011;61891;55.818;37.084;2023-07-29T08:16:31;2.53;;;1.92;;
72801;SDS011;61891;55.818;37.084;2023-07-29T08:21:23;3.10;;;2.03;;
72801;SDS011;61891;55.818;37.084;2023-07-29T08:23:48;3.38;;;3.00;;
72801;SDS011;61891;55.818;37.084;2023-07-29T08:26:14;4.63;;;2.45;;
72801;SDS011;61891;55.818;37.084;2023-07-29T08:28:40;5.45;;;2.10;;
72801;SDS011;61891;55.818;37.084;2023-07-29T08:31:06;3.35;;;2.25;;
72801;SDS011;61891;55.818;37.084;2023-07-29T08:33:33;3.53;;;2.47;;
72801;SDS011;61891;55.818;37.084;2023-07-29T08:35:59;2.08;;;1.70;;
72801;SDS011;61891;55.818;37.084;2023-07-29T08:41:07;4.13;;;2.65;;
72801;SDS011;61891;55.818;37.084;2023-07-29T08:43:38;5.53;;;2.55;;
72801;SDS011;61891;55.818;37.084;2023-07-29T08:46:04;3.17;;;2.10;;
72801;SDS011;61891;55.818;37.084;2023-07-29T08:48:50;3.70;;;2.38;;
72801;SDS011;61891;55.818;37.084;2023-07-29T08:51:16;4.35;;;2.58;;
72801;SDS011;61891;55.818;37.084;2023-07-29T08:53:43;6.57;;;3.90;;
72801;SDS011;61891;55.818;37.084;2023-07-29T08:58:35;2.83;;;2.05;;
72801;SDS011;61891;55.818;37.084;2023-07-29T09:01:01;3.88;;;2.47;;
72801;SDS011;61891;55.818;37.084;2023-07-29T09:05:53;3.40;;;1.98;;
72801;SDS011;61891;55.818;37.084;2023-07-29T09:08:20;2.97;;;1.92;;
72801;SDS011;61891;55.818;37.084;2023-07-29T09:10:47;3.72;;;1.90;;
72801;SDS011;61891;55.818;37.084;2023-07-29T09:13:13;2.42;;;1.70;;
72801;SDS011;61891;55.818;37.084;2023-07-29T09:18:17;3.80;;;1.95;;
72801;SDS011;61891;55.818;37.084;2023-07-29T09:20:48;2.13;;;1.83;;
72801;SDS011;61891;55.818;37.084;2023-07-29T09:23:15;3.38;;;1.77;;
72801;SDS011;61891;55.818;37.084;2023-07-29T09:25:41;2.92;;;1.60;;
72801;SDS011;61891;55.818;37.084;2023-07-29T09:30:41;4.10;;;2.00;;
72801;SDS011;61891;55.818;37.084;2023-07-29T09:33:08;3.17;;;1.88;;
72801;SDS011;61891;55.818;37.084;2023-07-29T09:35:35;2.78;;;1.95;;
72801;SDS011;61891;55.818;37.084;2023-07-29T09:38:02;2.75;;;1.73;;
72801;SDS011;61891;55.818;37.084;2023-07-29T09:40:36;4.05;;;1.70;;
72801;SDS011;61891;55.818;37.084;2023-07-29T09:43:06;1.92;;;1.63;;
72801;SDS011;61891;55.818;37.084;2023-07-29T09:45:34;3.85;;;2.30;;
72801;SDS011;61891;55.818;37.084;2023-07-29T09:48:01;3.25;;;1.83;;
72801;SDS011;61891;55.818;37.084;2023-07-29T09:50:30;3.28;;;1.90;;
72801;SDS011;61891;55.818;37.084;2023-07-29T09:52:56;3.63;;;1.95;;
72801;SDS011;61891;55.818;37.084;2023-07-29T09:55:26;3.67;;;1.95;;
72801;SDS011;61891;55.818;37.084;2023-07-29T09:57:53;2.53;;;1.75;;
72801;SDS011;61891;55.818;37.084;2023-07-29T10:00:23;2.08;;;1.75;;
72801;SDS011;61891;55.818;37.084;2023-07-29T10:05:15;2.85;;;1.92;;
72801;SDS011;61891;55.818;37.084;2023-07-29T10:07:41;2.53;;;1.80;;
72801;SDS011;61891;55.818;37.084;2023-07-29T10:12:35;5.50;;;2.28;;
72801;SDS011;61891;55.818;37.084;2023-07-29T10:17:29;2.45;;;1.52;;
72801;SDS011;61891;55.818;37.084;2023-07-29T10:19:56;3.13;;;1.92;;
72801;SDS011;61891;55.818;37.084;2023-07-29T10:22:28;2.60;;;1.77;;
72801;SDS011;61891;55.818;37.084;2023-07-29T10:24:59;3.13;;;2.13;;
72801;SDS011;61891;55.818;37.084;2023-07-29T10:27:32;2.22;;;1.48;;
72801;SDS011;61891;55.818;37.084;2023-07-29T10:30:07;1.88;;;1.52;;
72801;SDS011;61891;55.818;37.084;2023-07-29T10:32:35;3.75;;;1.90;;
72801;SDS011;61891;55.818;37.084;2023-07-29T10:35:02;2.95;;;1.80;;
72801;SDS011;61891;55.818;37.084;2023-07-29T10:37:29;3.53;;;2.15;;
72801;SDS011;61891;55.818;37.084;2023-07-29T10:39:55;2.03;;;1.77;;
72801;SDS011;61891;55.818;37.084;2023-07-29T10:44:50;1.80;;;1.67;;
72801;SDS011;61891;55.818;37.084;2023-07-29T10:47:19;2.33;;;1.83;;
72801;SDS011;61891;55.818;37.084;2023-07-29T10:49:54;3.97;;;2.00;;
72801;SDS011;61891;55.818;37.084;2023-07-29T10:52:28;2.22;;;1.90;;
72801;SDS011;61891;55.818;37.084;2023-07-29T10:55:01;3.45;;;2.10;;
72801;SDS011;61891;55.818;37.084;2023-07-29T10:57:33;2.40;;;1.73;;
72801;SDS011;61891;55.818;37.084;2023-07-29T11:00:01;4.00;;;1.85;;
72801;SDS011;61891;55.818;37.084;2023-07-29T11:02:32;3.08;;;2.00;;
72801;SDS011;61891;55.818;37.084;2023-07-29T11:05:05;2.42;;;2.05;;
72801;SDS011;61891;55.818;37.084;2023-07-29T11:07:52;1.80;;;1.50;;
72801;SDS011;61891;55.818;37.084;2023-07-29T11:15:26;2.65;;;2.17;;
72801;SDS011;61891;55.818;37.084;2023-07-29T11:17:55;4.88;;;1.95;;
72801;SDS011;61891;55.818;37.084;2023-07-29T11:20:23;2.05;;;1.83;;
72801;SDS011;61891;55.818;37.084;2023-07-29T11:22:50;2.60;;;2.05;;
72801;SDS011;61891;55.818;37.084;2023-07-29T11:25:17;2.78;;;2.00;;
72801;SDS011;61891;55.818;37.084;2023-07-29T11:27:45;3.60;;;2.00;;
72801;SDS011;61891;55.818;37.084;2023-07-29T11:30:13;3.28;;;2.10;;
72801;SDS011;61891;55.818;37.084;2023-07-29T11:32:40;2.22;;;2.03;;
72801;SDS011;61891;55.818;37.084;2023-07-29T11:35:11;3.38;;;2.22;;
72801;SDS011;61891;55.818;37.084;2023-07-29T11:37:41;2.78;;;1.90;;
72801;SDS011;61891;55.818;37.084;2023-07-29T11:40:09;4.65;;;2.22;;
72801;SDS011;61891;55.818;37.084;2023-07-29T11:42:38;3.67;;;2.70;;
72801;SDS011;61891;55.818;37.084;2023-07-29T11:47:33;4.05;;;2.30;;
72801;SDS011;61891;55.818;37.084;2023-07-29T11:50:06;5.00;;;2.22;;
72801;SDS011;61891;55.818;37.084;2023-07-29T11:52:40;4.38;;;2.33;;
72801;SDS011;61891;55.818;37.084;2023-07-29T11:55:07;4.50;;;2.60;;
72801;SDS011;61891;55.818;37.084;2023-07-29T11:57:35;3.70;;;2.30;;
72801;SDS011;61891;55.818;37.084;2023-07-29T12:00:03;9.10;;;2.42;;
72801;SDS011;61891;55.818;37.084;2023-07-29T12:02:35;3.25;;;1.80;;
72801;SDS011;61891;55.818;37.084;2023-07-29T12:05:04;4.05;;;2.15;;
72801;SDS011;61891;55.818;37.084;2023-07-29T12:07:31;4.10;;;1.88;;
72801;SDS011;61891;55.818;37.084;2023-07-29T12:09:59;4.22;;;1.98;;
72801;SDS011;61891;55.818;37.084;2023-07-29T12:12:25;3.05;;;1.80;;
72801;SDS011;61891;55.818;37.084;2023-07-29T12:17:19;3.65;;;2.28;;
72801;SDS011;61891;55.818;37.084;2023-07-29T12:22:10;3.47;;;2.22;;
72801;SDS011;61891;55.818;37.084;2023-07-29T12:27:03;3.22;;;2.63;;
72801;SDS011;61891;55.818;37.084;2023-07-29T12:29:30;2.75;;;2.40;;
72801;SDS011;61891;55.818;37.084;2023-07-29T12:34:24;3.50;;;2.78;;
72801;SDS011;61891;55.818;37.084;2023-07-29T12:36:51;5.25;;;2.42;;
72801;SDS011;61891;55.818;37.084;2023-07-29T12:39:18;3.90;;;2.40;;
72801;SDS011;61891;55.818;37.084;2023-07-29T12:41:49;4.60;;;2.80;;
72801;SDS011;61891;55.818;37.084;2023-07-29T12:44:16;4.63;;;2.17;;
72801;SDS011;61891;55.818;37.084;2023-07-29T12:46:43;3.78;;;2.63;;
72801;SDS011;61891;55.818;37.084;2023-07-29T12:49:09;6.70;;;2.53;;
72801;SDS011;61891;55.818;37.084;2023-07-29T12:54:01;7.20;;;2.40;;
72801;SDS011;61891;55.818;37.084;2023-07-29T12:56:28;3.25;;;1.92;;
72801;SDS011;61891;55.818;37.084;2023-07-29T12:58:56;4.00;;;2.42;;
72801;SDS011;61891;55.818;37.084;2023-07-29T13:01:23;5.45;;;3.22;;
72801;SDS011;61891;55.818;37.084;2023-07-29T13:06:14;5.28;;;3.10;;
72801;SDS011;61891;55.818;37.084;2023-07-29T13:08:41;5.07;;;3.88;;
72801;SDS011;61891;55.818;37.084;2023-07-29T13:11:07;5.20;;;3.95;;
72801;SDS011;61891;55.818;37.084;2023-07-29T13:15:59;2.88;;;2.53;;
72801;SDS011;61891;55.818;37.084;2023-07-29T13:20:50;4.60;;;2.97;;
72801;SDS011;61891;55.818;37.084;2023-07-29T13:25:42;3.78;;;2.78;;
72801;SDS011;61891;55.818;37.084;2023-07-29T13:28:09;5.53;;;4.82;;
72801;SDS011;61891;55.818;37.084;2023-07-29T13:30:35;4.18;;;3.10;;
72801;SDS011;61891;55.818;37.084;2023-07-29T13:33:01;3.22;;;2.53;;
72801;SDS011;61891;55.818;37.084;2023-07-29T13:35:28;5.60;;;2.40;;
72801;SDS011;61891;55.818;37.084;2023-07-29T13:37:56;3.72;;;2.63;;
72801;SDS011;61891;55.818;37.084;2023-07-29T13:40:22;3.20;;;2.47;;
72801;SDS011;61891;55.818;37.084;2023-07-29T13:42:48;5.13;;;2.95;;
72801;SDS011;61891;55.818;37.084;2023-07-29T13:45:13;3.63;;;2.42;;
72801;SDS011;61891;55.818;37.084;2023-07-29T13:47:39;7.47;;;3.80;;
72801;SDS011;61891;55.818;37.084;2023-07-29T13:50:05;3.72;;;2.60;;
72801;SDS011;61891;55.818;37.084;2023-07-29T13:52:33;3.30;;;2.25;;
72801;SDS011;61891;55.818;37.084;2023-07-29T13:54:59;4.13;;;2.58;;
72801;SDS011;61891;55.818;37.084;2023-07-29T13:57:25;8.13;;;2.40;;
72801;SDS011;61891;55.818;37.084;2023-07-29T13:59:51;3.67;;;2.28;;
72801;SDS011;61891;55.818;37.084;2023-07-29T14:02:16;4.18;;;2.38;;
72801;SDS011;61891;55.818;37.084;2023-07-29T14:04:42;3.88;;;2.28;;
72801;SDS011;61891;55.818;37.084;2023-07-29T14:07:08;3.88;;;2.97;;
72801;SDS011;61891;55.818;37.084;2023-07-29T14:09:34;4.30;;;2.75;;
72801;SDS011;61891;55.818;37.084;2023-07-29T14:11:59;3.67;;;2.70;;
72801;SDS011;61891;55.818;37.084;2023-07-29T14:14:25;5.93;;;2.70;;
72801;SDS011;61891;55.818;37.084;2023-07-29T14:16:51;5.80;;;3.03;;
72801;SDS011;61891;55.818;37.084;2023-07-29T14:19:17;6.97;;;2.50;;
72801;SDS011;61891;55.818;37.084;2023-07-29T14:21:42;4.95;;;2.63;;
72801;SDS011;61891;55.818;37.084;2023-07-29T14:24:08;4.07;;;3.00;;
72801;SDS011;61891;55.818;37.084;2023-07-29T14:26:34;4.93;;;2.65;;
72801;SDS011;61891;55.818;37.084;2023-07-29T14:29:00;3.20;;;2.42;;
72801;SDS011;61891;55.818;37.084;2023-07-29T14:31:25;3.47;;;2.92;;
72801;SDS011;61891;55.818;37.084;2023-07-29T14:33:51;5.93;;;3.70;;
72801;SDS011;61891;55.818;37.084;2023-07-29T14:36:17;4.30;;;3.13;;
72801;SDS011;61891;55.818;37.084;2023-07-29T14:38:43;6.03;;;2.03;;
72801;SDS011;61891;55.818;37.084;2023-07-29T14:41:08;3.92;;;2.00;;
72801;SDS011;61891;55.818;37.084;2023-07-29T14:43:34;2.90;;;2.30;;
72801;SDS011;61891;55.818;37.084;2023-07-29T14:46:00;5.97;;;2.08;;
72801;SDS011;61891;55.818;37.084;2023-07-29T14:48:27;3.63;;;2.08;;
72801;SDS011;61891;55.818;37.084;2023-07-29T14:50:53;3.10;;;2.25;;
72801;SDS011;61891;55.818;37.084;2023-07-29T14:53:19;2.55;;;2.10;;
72801;SDS011;61891;55.818;37.084;2023-07-29T14:55:45;2.97;;;2.00;;
72801;SDS011;61891;55.818;37.084;2023-07-29T14:58:13;2.40;;;2.20;;
72801;SDS011;61891;55.818;37.084;2023-07-29T15:00:39;3.25;;;2.40;;
72801;SDS011;61891;55.818;37.084;2023-07-29T15:03:04;2.97;;;2.00;;
72801;SDS011;61891;55.818;37.084;2023-07-29T15:05:32;3.88;;;2.85;;
72801;SDS011;61891;55.818;37.084;2023-07-29T15:07:58;4.32;;;3.30;;
72801;SDS011;61891;55.818;37.084;2023-07-29T15:10:24;3.97;;;3.00;;
72801;SDS011;61891;55.818;37.084;2023-07-29T15:12:51;6.78;;;3.78;;
72801;SDS011;61891;55.818;37.084;2023-07-29T15:15:19;4.65;;;3.40;;
72801;SDS011;61891;55.818;37.084;2023-07-29T15:17:45;5.72;;;3.38;;
72801;SDS011;61891;55.818;37.084;2023-07-29T15:20:13;15.43;;;3.55;;
72801;SDS011;61891;55.818;37.084;2023-07-29T15:22:39;5.40;;;2.53;;
72801;SDS011;61891;55.818;37.084;2023-07-29T15:27:30;4.63;;;2.47;;
72801;SDS011;61891;55.818;37.084;2023-07-29T15:29:59;6.18;;;2.53;;
72801;SDS011;61891;55.818;37.084;2023-07-29T15:32:24;4.43;;;2.40;;
72801;SDS011;61891;55.818;37.084;2023-07-29T15:37:20;5.57;;;2.67;;
72801;SDS011;61891;55.818;37.084;2023-07-29T15:39:46;5.22;;;2.53;;
72801;SDS011;61891;55.818;37.084;2023-07-29T15:42:11;5.90;;;2.50;;
72801;SDS011;61891;55.818;37.084;2023-07-29T15:44:37;5.43;;;2.35;;
72801;SDS011;61891;55.818;37.084;2023-07-29T15:49:29;5.13;;;2.33;;
72801;SDS011;61891;55.818;37.084;2023-07-29T15:51:55;3.67;;;2.33;;
72801;SDS011;61891;55.818;37.084;2023-07-29T15:54:20;4.05;;;2.50;;
72801;SDS011;61891;55.818;37.084;2023-07-29T15:59:12;3.65;;;2.40;;
72801;SDS011;61891;55.818;37.084;2023-07-29T16:04:03;3.97;;;2.40;;
72801;SDS011;61891;55.818;37.084;2023-07-29T16:08:55;3.70;;;2.75;;
72801;SDS011;61891;55.818;37.084;2023-07-29T16:13:47;6.75;;;2.22;;
72801;SDS011;61891;55.818;37.084;2023-07-29T16:18:38;5.90;;;3.45;;
72801;SDS011;61891;55.818;37.084;2023-07-29T16:21:04;7.20;;;3.15;;